sensor_id;sensor_type;location;lat;lon;timestamp;pressure;altitude;pressure_sealevel;temperature;humidity
19789;BME280;10054;59.332;18.244;2023-01-26T00:02:16;100907.57;;;4.15;100.00
19789;BME280;10054;59.332;18.244;2023-01-26T00:04:45;100899.69;;;4.17;100.00
19789;BME280;10054;59.332;18.244;2023-01-26T00:07:14;100901.84;;;4.17;100.00
19789;BME280;10054;59.332;18.244;2023-01-26T00:09:43;100898.88;;;4.15;100.00
19789;BME280;10054;59.332;18.244;2023-01-26T00:12:11;100897.63;;;4.13;100.00
19789;BME280;10054;59.332;18.244;2023-01-26T00:14:40;100895.02;;;4.13;100.00
19789;BME280;10054;59.332;18.244;2023-01-26T00:17:19;100891.15;;;4.12;100.00
19789;BME280;10054;59.332;18.244;2023-01-26T00:19:56;100889.03;;;4.10;100.00
19789;BME280;10054;59.332;18.244;2023-01-26T00:22:26;100891.20;;;4.10;100.00
19789;BME280;10054;59.332;18.244;2023-01-26T00:24:55;100892.86;;;4.13;100.00
19789;BME280;10054;59.332;18.244;2023-01-26T00:27:25;100898.58;;;4.11;100.00
19789;BME280;10054;59.332;18.244;2023-01-26T00:29:54;100894.70;;;4.09;100.00
19789;BME280;10054;59.332;18.244;2023-01-26T00:32:23;100896.41;;;4.10;100.00
19789;BME280;10054;59.332;18.244;2023-01-26T00:34:51;100900.73;;;4.11;100.00
19789;BME280;10054;59.332;18.244;2023-01-26T00:37:20;100905.55;;;4.10;100.00
19789;BME280;10054;59.332;18.244;2023-01-26T00:39:50;100899.92;;;4.09;100.00
19789;BME280;10054;59.332;18.244;2023-01-26T00:42:19;100902.04;;;4.11;100.00
19789;BME280;10054;59.332;18.244;2023-01-26T00:44:53;100902.84;;;4.13;100.00
19789;BME280;10054;59.332;18.244;2023-01-26T00:47:23;100901.19;;;4.11;100.00
19789;BME280;10054;59.332;18.244;2023-01-26T00:49:51;100906.41;;;4.11;100.00
19789;BME280;10054;59.332;18.244;2023-01-26T00:52:20;100913.29;;;4.13;100.00
19789;BME280;10054;59.332;18.244;2023-01-26T00:54:50;100914.14;;;4.14;100.00
19789;BME280;10054;59.332;18.244;2023-01-26T00:57:20;100909.02;;;4.11;100.00
19789;BME280;10054;59.332;18.244;2023-01-26T00:59:48;100900.33;;;4.10;100.00
19789;BME280;10054;59.332;18.244;2023-01-26T01:02:17;100887.18;;;4.13;100.00
19789;BME280;10054;59.332;18.244;2023-01-26T01:04:48;100897.17;;;4.14;100.00
19789;BME280;10054;59.332;18.244;2023-01-26T01:07:20;100894.66;;;4.11;100.00
19789;BME280;10054;59.332;18.244;2023-01-26T01:09:49;100893.35;;;4.11;100.00
19789;BME280;10054;59.332;18.244;2023-01-26T01:12:18;100904.16;;;4.13;100.00
19789;BME280;10054;59.332;18.244;2023-01-26T01:14:47;100906.31;;;4.14;100.00
19789;BME280;10054;59.332;18.244;2023-01-26T01:17:17;100909.02;;;4.11;100.00
19789;BME280;10054;59.332;18.244;2023-01-26T01:19:46;100910.78;;;4.10;100.00
19789;BME280;10054;59.332;18.244;2023-01-26T01:22:15;100913.29;;;4.13;100.00
19789;BME280;10054;59.332;18.244;2023-01-26T01:24:44;100908.56;;;4.11;100.00
19789;BME280;10054;59.332;18.244;2023-01-26T01:27:13;100908.16;;;4.10;100.00
19789;BME280;10054;59.332;18.244;2023-01-26T01:29:42;100907.27;;;4.11;100.00
19789;BME280;10054;59.332;18.244;2023-01-26T01:32:10;100908.52;;;4.13;100.00
19789;BME280;10054;59.332;18.244;2023-01-26T01:34:39;100899.38;;;4.13;100.00
19789;BME280;10054;59.332;18.244;2023-01-26T01:37:08;100896.37;;;4.12;100.00
19789;BME280;10054;59.332;18.244;2023-01-26T01:39:38;100904.20;;;4.12;100.00
19789;BME280;10054;59.332;18.244;2023-01-26T01:42:06;100908.97;;;4.12;100.00
19789;BME280;10054;59.332;18.244;2023-01-26T01:44:37;100909.78;;;4.14;100.00
19789;BME280;10054;59.332;18.244;2023-01-26T01:47:18;100916.30;;;4.14;100.00
19789;BME280;10054;59.332;18.244;2023-01-26T01:49:48;100916.40;;;4.11;100.00
19789;BME280;10054;59.332;18.244;2023-01-26T01:52:28;100917.66;;;4.13;100.00
19789;BME280;10054;59.332;18.244;2023-01-26T01:55:07;100918.87;;;4.16;100.00
19789;BME280;10054;59.332;18.244;2023-01-26T01:57:57;100925.39;;;4.16;100.00
19789;BME280;10054;59.332;18.244;2023-01-26T02:00:27;100918.91;;;4.14;100.00
19789;BME280;10054;59.332;18.244;2023-01-26T02:03:08;100928.01;;;4.16;100.00
19789;BME280;10054;59.332;18.244;2023-01-26T02:06:06;100926.66;;;4.17;100.00
19789;BME280;10054;59.332;18.244;2023-01-26T02:08:36;100921.58;;;4.13;100.00
19789;BME280;10054;59.332;18.244;2023-01-26T02:11:08;100917.66;;;4.13;100.00
19789;BME280;10054;59.332;18.244;2023-01-26T02:13:38;100918.47;;;4.15;100.00
19789;BME280;10054;59.332;18.244;2023-01-26T02:16:08;100918.52;;;4.13;100.00
19789;BME280;10054;59.332;18.244;2023-01-26T02:18:37;100927.30;;;4.11;100.00
19789;BME280;10054;59.332;18.244;2023-01-26T02:21:08;100928.65;;;4.09;100.00
19789;BME280;10054;59.332;18.244;2023-01-26T02:24:01;100923.33;;;4.12;100.00
19789;BME280;10054;59.332;18.244;2023-01-26T02:26:33;100919.01;;;4.11;100.00
19789;BME280;10054;59.332;18.244;2023-01-26T02:29:05;100919.06;;;4.10;100.00
19789;BME280;10054;59.332;18.244;2023-01-26T02:31:37;100911.67;;;4.09;100.00
19789;BME280;10054;59.332;18.244;2023-01-26T02:34:07;100909.42;;;4.12;100.00
19789;BME280;10054;59.332;18.244;2023-01-26T02:36:36;100911.63;;;4.11;100.00
19789;BME280;10054;59.332;18.244;2023-01-26T02:41:47;100913.84;;;4.10;100.00
19789;BME280;10054;59.332;18.244;2023-01-26T02:44:36;100915.05;;;4.13;100.00
19789;BME280;10054;59.332;18.244;2023-01-26T02:47:14;100917.70;;;4.11;100.00
19789;BME280;10054;59.332;18.244;2023-01-26T02:49:43;100919.56;;;4.08;100.00
19789;BME280;10054;59.332;18.244;2023-01-26T02:52:24;100920.86;;;4.08;100.00
19789;BME280;10054;59.332;18.244;2023-01-26T02:54:55;100915.19;;;4.08;100.00
19789;BME280;10054;59.332;18.244;2023-01-26T02:57:42;100920.36;;;4.10;100.00
19789;BME280;10054;59.332;18.244;2023-01-26T03:00:19;100923.88;;;4.09;100.00
19789;BME280;10054;59.332;18.244;2023-01-26T03:02:44;100928.20;;;4.10;100.00
19789;BME280;10054;59.332;18.244;2023-01-26T03:05:15;100923.33;;;4.12;100.00
19789;BME280;10054;59.332;18.244;2023-01-26T03:07:43;100925.53;;;4.11;100.00
19789;BME280;10054;59.332;18.244;2023-01-26T03:10:13;100931.66;;;4.10;100.00
19789;BME280;10054;59.332;18.244;2023-01-26T03:12:43;100926.89;;;4.10;100.00
19789;BME280;10054;59.332;18.244;2023-01-26T03:15:12;100926.84;;;4.11;100.00
19789;BME280;10054;59.332;18.244;2023-01-26T03:18:05;100921.27;;;4.09;100.00
19789;BME280;10054;59.332;18.244;2023-01-26T03:20:37;100921.72;;;4.08;100.00
19789;BME280;10054;59.332;18.244;2023-01-26T03:23:24;100925.18;;;4.09;100.00
19789;BME280;10054;59.332;18.244;2023-01-26T03:26:02;100923.42;;;4.09;100.00
19789;BME280;10054;59.332;18.244;2023-01-26T03:28:49;100928.29;;;4.07;100.00
19789;BME280;10054;59.332;18.244;2023-01-26T03:31:18;100932.61;;;4.08;100.00
19789;BME280;10054;59.332;18.244;2023-01-26T03:33:47;100933.42;;;4.10;100.00
19789;BME280;10054;59.332;18.244;2023-01-26T03:36:16;100938.69;;;4.08;100.00
19789;BME280;10054;59.332;18.244;2023-01-26T03:38:44;100940.94;;;4.06;100.00
19789;BME280;10054;59.332;18.244;2023-01-26T03:41:14;100945.21;;;4.08;100.00
19789;BME280;10054;59.332;18.244;2023-01-26T03:44:00;100945.56;;;4.11;100.00
19789;BME280;10054;59.332;18.244;2023-01-26T03:46:47;100939.98;;;4.08;100.00
19789;BME280;10054;59.332;18.244;2023-01-26T03:49:34;100934.41;;;4.06;100.00
19789;BME280;10054;59.332;18.244;2023-01-26T03:52:21;100939.98;;;4.08;100.00
19789;BME280;10054;59.332;18.244;2023-01-26T03:55:08;100946.88;;;4.11;100.00
19789;BME280;10054;59.332;18.244;2023-01-26T03:57:55;100949.08;;;4.10;100.00
19789;BME280;10054;59.332;18.244;2023-01-26T04:00:23;100951.29;;;4.09;100.00
19789;BME280;10054;59.332;18.244;2023-01-26T04:02:52;100951.20;;;4.12;100.00
19789;BME280;10054;59.332;18.244;2023-01-26T04:05:39;100955.16;;;4.10;100.00
19789;BME280;10054;59.332;18.244;2023-01-26T04:08:26;100942.20;;;4.07;100.00
19789;BME280;10054;59.332;18.244;2023-01-26T04:10:59;100946.56;;;4.07;100.00
19789;BME280;10054;59.332;18.244;2023-01-26T04:13:29;100936.93;;;4.09;100.00
19789;BME280;10054;59.332;18.244;2023-01-26T04:16:17;100940.34;;;4.11;100.00
19789;BME280;10054;59.332;18.244;2023-01-26T04:19:03;100946.11;;;4.07;100.00
19789;BME280;10054;59.332;18.244;2023-01-26T04:21:50;100945.62;;;4.09;100.00
19789;BME280;10054;59.332;18.244;2023-01-26T04:24:20;100948.58;;;4.12;100.00
19789;BME280;10054;59.332;18.244;2023-01-26T04:26:51;100958.67;;;4.09;100.00
19789;BME280;10054;59.332;18.244;2023-01-26T04:29:21;100953.95;;;4.07;100.00
19789;BME280;10054;59.332;18.244;2023-01-26T04:31:50;100952.14;;;4.09;100.00
19789;BME280;10054;59.332;18.244;2023-01-26T04:34:20;100956.82;;;4.13;100.00
19789;BME280;10054;59.332;18.244;2023-01-26T04:36:49;100959.88;;;4.12;100.00
19789;BME280;10054;59.332;18.244;2023-01-26T04:39:19;100967.77;;;4.11;100.00
19789;BME280;10054;59.332;18.244;2023-01-26T04:41:50;100966.81;;;4.13;100.00
19789;BME280;10054;59.332;18.244;2023-01-26T04:44:19;100969.37;;;4.15;100.00
19789;BME280;10054;59.332;18.244;2023-01-26T04:46:48;100962.45;;;4.14;100.00
19789;BME280;10054;59.332;18.244;2023-01-26T04:49:18;100968.12;;;4.13;100.00
19789;BME280;10054;59.332;18.244;2023-01-26T04:51:47;100968.87;;;4.17;100.00
19789;BME280;10054;59.332;18.244;2023-01-26T04:54:16;100972.30;;;4.19;100.00
19789;BME280;10054;59.332;18.244;2023-01-26T04:56:45;100971.45;;;4.18;100.00
19789;BME280;10054;59.332;18.244;2023-01-26T04:59:14;100964.97;;;4.17;100.00
19789;BME280;10054;59.332;18.244;2023-01-26T05:01:43;100966.58;;;4.21;100.00
19789;BME280;10054;59.332;18.244;2023-01-26T05:04:12;100975.77;;;4.19;100.00
19789;BME280;10054;59.332;18.244;2023-01-26T05:06:42;100984.95;;;4.18;100.00
19789;BME280;10054;59.332;18.244;2023-01-26T05:09:12;100988.47;;;4.17;100.00
19789;BME280;10054;59.332;18.244;2023-01-26T05:11:42;100990.13;;;4.19;100.00
19789;BME280;10054;59.332;18.244;2023-01-26T05:14:18;100987.52;;;4.19;100.00
19789;BME280;10054;59.332;18.244;2023-01-26T05:17:01;100987.16;;;4.17;100.00
19789;BME280;10054;59.332;18.244;2023-01-26T05:19:40;100991.08;;;4.17;100.00
19789;BME280;10054;59.332;18.244;2023-01-26T05:22:27;100994.09;;;4.18;100.00
19789;BME280;10054;59.332;18.244;2023-01-26T05:25:14;100997.06;;;4.20;100.00
19789;BME280;10054;59.332;18.244;2023-01-26T05:27:44;101001.42;;;4.20;100.00
19789;BME280;10054;59.332;18.244;2023-01-26T05:30:13;101001.47;;;4.18;100.00
19789;BME280;10054;59.332;18.244;2023-01-26T05:32:44;101005.34;;;4.20;100.00
19789;BME280;10054;59.332;18.244;2023-01-26T05:35:13;101012.73;;;4.20;100.00
19789;BME280;10054;59.332;18.244;2023-01-26T05:37:42;101017.95;;;4.20;100.00
19789;BME280;10054;59.332;18.244;2023-01-26T05:40:13;101019.66;;;4.21;100.00
19789;BME280;10054;59.332;18.244;2023-01-26T05:42:42;101017.91;;;4.22;100.00
19789;BME280;10054;59.332;18.244;2023-01-26T05:45:30;101027.05;;;4.22;100.00
19789;BME280;10054;59.332;18.244;2023-01-26T05:48:00;101030.55;;;4.21;100.00
19789;BME280;10054;59.332;18.244;2023-01-26T05:50:30;101037.08;;;4.21;100.00
19789;BME280;10054;59.332;18.244;2023-01-26T05:53:16;101042.67;;;4.23;100.00
19789;BME280;10054;59.332;18.244;2023-01-26T05:55:46;101043.16;;;4.21;100.00
19789;BME280;10054;59.332;18.244;2023-01-26T05:58:17;101052.75;;;4.21;100.00
19789;BME280;10054;59.332;18.244;2023-01-26T06:00:46;101055.77;;;4.22;100.00
19789;BME280;10054;59.332;18.244;2023-01-26T06:03:17;101054.05;;;4.21;100.00
19789;BME280;10054;59.332;18.244;2023-01-26T06:05:51;101061.03;;;4.20;100.00
19789;BME280;10054;59.332;18.244;2023-01-26T06:08:22;101073.19;;;4.21;100.00
19789;BME280;10054;59.332;18.244;2023-01-26T06:10:59;101065.41;;;4.20;100.00
19789;BME280;10054;59.332;18.244;2023-01-26T06:13:30;101066.21;;;4.22;100.00
19789;BME280;10054;59.332;18.244;2023-01-26T06:16:03;101077.16;;;4.20;100.00
19789;BME280;10054;59.332;18.244;2023-01-26T06:18:33;101075.48;;;4.17;100.00
19789;BME280;10054;59.332;18.244;2023-01-26T06:21:04;101083.31;;;4.17;100.00
19789;BME280;10054;59.332;18.244;2023-01-26T06:23:33;101082.88;;;4.18;100.00
19789;BME280;10054;59.332;18.244;2023-01-26T06:26:02;101085.93;;;4.17;100.00
19789;BME280;10054;59.332;18.244;2023-01-26T06:28:33;101098.98;;;4.17;100.00
19789;BME280;10054;59.332;18.244;2023-01-26T06:31:04;101100.74;;;4.17;100.00
19789;BME280;10054;59.332;18.244;2023-01-26T06:33:36;101102.00;;;4.18;100.00
19789;BME280;10054;59.332;18.244;2023-01-26T06:36:08;101102.86;;;4.19;100.00
19789;BME280;10054;59.332;18.244;2023-01-26T06:38:38;101103.72;;;4.19;100.00
19789;BME280;10054;59.332;18.244;2023-01-26T06:41:07;101112.00;;;4.19;100.00
19789;BME280;10054;59.332;18.244;2023-01-26T06:43:36;101114.25;;;4.16;100.00
19789;BME280;10054;59.332;18.244;2023-01-26T06:46:06;101117.31;;;4.16;100.00
19789;BME280;10054;59.332;18.244;2023-01-26T06:48:37;101122.98;;;4.15;100.00
19789;BME280;10054;59.332;18.244;2023-01-26T06:53:59;101133.83;;;4.16;100.00
19789;BME280;10054;59.332;18.244;2023-01-26T06:56:32;101133.42;;;4.15;100.00
19789;BME280;10054;59.332;18.244;2023-01-26T06:59:22;101134.73;;;4.15;100.00
19789;BME280;10054;59.332;18.244;2023-01-26T07:02:16;101131.63;;;4.17;100.00
19789;BME280;10054;59.332;18.244;2023-01-26T07:04:46;101134.20;;;4.19;100.00
19789;BME280;10054;59.332;18.244;2023-01-26T07:07:16;101142.03;;;4.19;100.00
19789;BME280;10054;59.332;18.244;2023-01-26T07:09:44;101139.38;;;4.20;100.00
19789;BME280;10054;59.332;18.244;2023-01-26T07:12:13;101148.87;;;4.23;100.00
19789;BME280;10054;59.332;18.244;2023-01-26T07:14:41;101160.72;;;4.20;100.00
19789;BME280;10054;59.332;18.244;2023-01-26T07:17:10;101168.27;;;4.14;100.00
19789;BME280;10054;59.332;18.244;2023-01-26T07:19:39;101176.50;;;4.15;100.00
19789;BME280;10054;59.332;18.244;2023-01-26T07:22:07;101171.69;;;4.16;100.00
19789;BME280;10054;59.332;18.244;2023-01-26T07:24:36;101173.94;;;4.14;100.00
19789;BME280;10054;59.332;18.244;2023-01-26T07:27:05;101183.48;;;4.15;100.00
19789;BME280;10054;59.332;18.244;2023-01-26T07:29:33;101183.84;;;4.17;100.00
19789;BME280;10054;59.332;18.244;2023-01-26T07:32:02;101191.64;;;4.19;100.00
19789;BME280;10054;59.332;18.244;2023-01-26T07:34:30;101198.25;;;4.16;100.00
19789;BME280;10054;59.332;18.244;2023-01-26T07:36:59;101203.52;;;4.14;100.00
19789;BME280;10054;59.332;18.244;2023-01-26T07:39:27;101197.44;;;4.14;100.00
19789;BME280;10054;59.332;18.244;2023-01-26T07:41:56;101208.78;;;4.13;100.00
19789;BME280;10054;59.332;18.244;2023-01-26T07:44:41;101209.67;;;4.12;100.00
19789;BME280;10054;59.332;18.244;2023-01-26T07:47:10;101211.39;;;4.13;100.00
19789;BME280;10054;59.332;18.244;2023-01-26T07:49:38;101214.00;;;4.13;100.00
19789;BME280;10054;59.332;18.244;2023-01-26T07:52:07;101219.30;;;4.10;100.00
19789;BME280;10054;59.332;18.244;2023-01-26T07:54:36;101219.30;;;4.10;100.00
19789;BME280;10054;59.332;18.244;2023-01-26T07:57:05;101218.85;;;4.10;100.00
19789;BME280;10054;59.332;18.244;2023-01-26T07:59:36;101222.81;;;4.09;100.00
19789;BME280;10054;59.332;18.244;2023-01-26T08:02:04;101221.13;;;4.06;100.00
19789;BME280;10054;59.332;18.244;2023-01-26T08:04:33;101230.35;;;4.03;100.00
19789;BME280;10054;59.332;18.244;2023-01-26T08:07:02;101236.51;;;4.01;100.00
19789;BME280;10054;59.332;18.244;2023-01-26T08:09:31;101237.44;;;3.98;100.00
19789;BME280;10054;59.332;18.244;2023-01-26T08:12:00;101241.44;;;3.95;100.00
19789;BME280;10054;59.332;18.244;2023-01-26T08:14:28;101247.63;;;3.91;100.00
19789;BME280;10054;59.332;18.244;2023-01-26T08:16:57;101250.69;;;3.90;100.00
19789;BME280;10054;59.332;18.244;2023-01-26T08:19:26;101255.02;;;3.91;100.00
19789;BME280;10054;59.332;18.244;2023-01-26T08:21:55;101263.81;;;3.87;100.00
19789;BME280;10054;59.332;18.244;2023-01-26T08:24:24;101270.41;;;3.84;100.00
19789;BME280;10054;59.332;18.244;2023-01-26T08:26:54;101275.70;;;3.81;100.00
19789;BME280;10054;59.332;18.244;2023-01-26T08:29:23;101279.28;;;3.77;100.00
19789;BME280;10054;59.332;18.244;2023-01-26T08:31:52;101281.97;;;3.74;100.00
19789;BME280;10054;59.332;18.244;2023-01-26T08:34:21;101290.28;;;3.72;100.00
19789;BME280;10054;59.332;18.244;2023-01-26T08:36:50;101286.12;;;3.65;100.00
19789;BME280;10054;59.332;18.244;2023-01-26T08:39:18;101289.15;;;3.66;100.00
19789;BME280;10054;59.332;18.244;2023-01-26T08:41:47;101293.61;;;3.61;100.00
19789;BME280;10054;59.332;18.244;2023-01-26T08:44:16;101300.63;;;3.59;100.00
19789;BME280;10054;59.332;18.244;2023-01-26T08:46:44;101303.70;;;3.57;100.00
19789;BME280;10054;59.332;18.244;2023-01-26T08:49:13;101305.94;;;3.54;100.00
19789;BME280;10054;59.332;18.244;2023-01-26T08:51:42;101310.81;;;3.50;100.00
19789;BME280;10054;59.332;18.244;2023-01-26T08:54:11;101318.27;;;3.48;100.00
19789;BME280;10054;59.332;18.244;2023-01-26T08:56:40;101324.88;;;3.43;100.00
19789;BME280;10054;59.332;18.244;2023-01-26T08:59:09;101345.40;;;3.39;100.00
19789;BME280;10054;59.332;18.244;2023-01-26T09:01:38;101347.59;;;3.38;100.00
19789;BME280;10054;59.332;18.244;2023-01-26T09:04:07;101347.21;;;3.36;100.00
19789;BME280;10054;59.332;18.244;2023-01-26T09:06:35;101346.80;;;3.35;100.00
19789;BME280;10054;59.332;18.244;2023-01-26T09:09:04;101344.64;;;3.34;100.00
19789;BME280;10054;59.332;18.244;2023-01-26T09:11:34;101351.60;;;3.34;100.00
19789;BME280;10054;59.332;18.244;2023-01-26T09:14:03;101358.19;;;3.30;100.00
19789;BME280;10054;59.332;18.244;2023-01-26T09:16:32;101359.59;;;3.26;100.00
19789;BME280;10054;59.332;18.244;2023-01-26T09:19:01;101357.01;;;3.24;100.00
19789;BME280;10054;59.332;18.244;2023-01-26T09:21:31;101351.83;;;3.23;100.00
19789;BME280;10054;59.332;18.244;2023-01-26T09:24:00;101359.71;;;3.20;100.00
19789;BME280;10054;59.332;18.244;2023-01-26T09:26:29;101356.30;;;3.16;100.00
19789;BME280;10054;59.332;18.244;2023-01-26T09:28:57;101362.82;;;3.16;100.00
19789;BME280;10054;59.332;18.244;2023-01-26T09:31:26;101370.23;;;3.15;100.00
19789;BME280;10054;59.332;18.244;2023-01-26T09:33:55;101368.95;;;3.14;100.00
19789;BME280;10054;59.332;18.244;2023-01-26T09:36:24;101371.12;;;3.14;100.00
19789;BME280;10054;59.332;18.244;2023-01-26T09:38:52;101378.97;;;3.13;100.00
19789;BME280;10054;59.332;18.244;2023-01-26T09:41:36;101373.31;;;3.13;100.00
19789;BME280;10054;59.332;18.244;2023-01-26T09:44:04;101379.86;;;3.12;100.00
19789;BME280;10054;59.332;18.244;2023-01-26T09:46:53;101383.83;;;3.09;100.00
19789;BME280;10054;59.332;18.244;2023-01-26T09:52:21;101399.47;;;3.09;100.00
19789;BME280;10054;59.332;18.244;2023-01-26T09:54:53;101396.00;;;3.08;100.00
19789;BME280;10054;59.332;18.244;2023-01-26T09:57:48;101391.70;;;3.06;100.00
19789;BME280;10054;59.332;18.244;2023-01-26T10:00:38;101400.36;;;3.08;100.00
19789;BME280;10054;59.332;18.244;2023-01-26T10:09:51;101406.84;;;3.09;100.00
19789;BME280;10054;59.332;18.244;2023-01-26T10:11:43;101414.25;;;3.08;100.00
19789;BME280;10054;59.332;18.244;2023-01-26T10:14:18;101418.98;;;3.10;100.00
19789;BME280;10054;59.332;18.244;2023-01-26T10:16:49;101425.92;;;3.11;100.00
19789;BME280;10054;59.332;18.244;2023-01-26T10:22:24;101432.50;;;3.08;100.00
19789;BME280;10054;59.332;18.244;2023-01-26T10:24:51;101436.05;;;3.04;100.00
19789;BME280;10054;59.332;18.244;2023-01-26T10:27:22;101440.37;;;3.05;100.00
19789;BME280;10054;59.332;18.244;2023-01-26T10:29:51;101443.01;;;3.04;100.00
19789;BME280;10054;59.332;18.244;2023-01-26T10:32:20;101453.16;;;2.96;100.00
19789;BME280;10054;59.332;18.244;2023-01-26T10:34:49;101448.86;;;2.94;100.00
19789;BME280;10054;59.332;18.244;2023-01-26T10:37:22;101464.03;;;2.96;100.00
19789;BME280;10054;59.332;18.244;2023-01-26T10:39:59;101469.30;;;2.93;100.00
19789;BME280;10054;59.332;18.244;2023-01-26T10:42:31;101471.43;;;2.95;100.00
19789;BME280;10054;59.332;18.244;2023-01-26T10:45:01;101481.00;;;2.94;100.00
19789;BME280;10054;59.332;18.244;2023-01-26T10:47:30;101483.63;;;2.93;100.00
19789;BME280;10054;59.332;18.244;2023-01-26T10:50:20;101496.52;;;2.99;100.00
19789;BME280;10054;59.332;18.244;2023-01-26T10:53:02;101484.33;;;3.01;100.00
19789;BME280;10054;59.332;18.244;2023-01-26T10:55:27;101489.04;;;3.05;100.00
19789;BME280;10054;59.332;18.244;2023-01-26T10:57:56;101488.98;;;3.08;100.00
19789;BME280;10054;59.332;18.244;2023-01-26T11:00:30;101498.05;;;3.11;100.00
19789;BME280;10054;59.332;18.244;2023-01-26T11:05:44;101490.98;;;3.17;100.00
19789;BME280;10054;59.332;18.244;2023-01-26T11:11:05;101499.20;;;3.20;100.00
19789;BME280;10054;59.332;18.244;2023-01-26T11:13:36;101504.83;;;3.21;100.00
19789;BME280;10054;59.332;18.244;2023-01-26T11:27:03;101516.53;;;3.22;100.00
19789;BME280;10054;59.332;18.244;2023-01-26T11:29:56;101519.17;;;3.21;100.00
19789;BME280;10054;59.332;18.244;2023-01-26T11:32:45;101531.73;;;3.23;100.00
19789;BME280;10054;59.332;18.244;2023-01-26T11:47:08;101540.19;;;3.12;100.00
19789;BME280;10054;59.332;18.244;2023-01-26T11:58:10;101551.23;;;3.01;100.00
19789;BME280;10054;59.332;18.244;2023-01-26T12:00:39;101556.45;;;3.01;100.00
19789;BME280;10054;59.332;18.244;2023-01-26T12:03:21;101558.09;;;3.06;100.00
19789;BME280;10054;59.332;18.244;2023-01-26T12:05:54;101557.67;;;3.05;100.00
19789;BME280;10054;59.332;18.244;2023-01-26T12:08:44;101563.30;;;3.06;100.00
19789;BME280;10054;59.332;18.244;2023-01-26T12:11:18;101560.72;;;3.05;100.00
19789;BME280;10054;59.332;18.244;2023-01-26T12:22:04;101564.14;;;3.08;100.00
19789;BME280;10054;59.332;18.244;2023-01-26T12:24:41;101565.89;;;3.08;100.00
19789;BME280;10054;59.332;18.244;2023-01-26T12:27:20;101568.05;;;3.08;100.00
19789;BME280;10054;59.332;18.244;2023-01-26T12:29:51;101570.61;;;3.11;100.00
19789;BME280;10054;59.332;18.244;2023-01-26T12:32:21;101576.29;;;3.09;100.00
19789;BME280;10054;59.332;18.244;2023-01-26T12:34:51;101576.23;;;3.12;100.00
19789;BME280;10054;59.332;18.244;2023-01-26T12:37:40;101579.73;;;3.11;100.00
19789;BME280;10054;59.332;18.244;2023-01-26T12:40:16;101578.90;;;3.09;100.00
19789;BME280;10054;59.332;18.244;2023-01-26T12:42:58;101578.06;;;3.07;100.00
19789;BME280;10054;59.332;18.244;2023-01-26T12:45:17;101590.67;;;3.06;100.00
19789;BME280;10054;59.332;18.244;2023-01-26T12:47:52;101590.73;;;3.03;100.00
19789;BME280;10054;59.332;18.244;2023-01-26T12:50:39;101592.45;;;3.04;100.00
19789;BME280;10054;59.332;18.244;2023-01-26T12:53:15;101590.73;;;3.03;100.00
19789;BME280;10054;59.332;18.244;2023-01-26T13:01:03;101600.31;;;3.01;100.00
19789;BME280;10054;59.332;18.244;2023-01-26T13:09:00;101615.20;;;2.96;100.00
19789;BME280;10054;59.332;18.244;2023-01-26T13:11:45;101619.62;;;2.91;99.17
19789;BME280;10054;59.332;18.244;2023-01-26T13:19:51;101636.30;;;2.79;97.39
19789;BME280;10054;59.332;18.244;2023-01-26T13:25:04;101643.31;;;2.74;96.26
19789;BME280;10054;59.332;18.244;2023-01-26T13:33:15;101661.31;;;2.59;95.28
19789;BME280;10054;59.332;18.244;2023-01-26T13:35:45;101669.16;;;2.56;94.65
19789;BME280;10054;59.332;18.244;2023-01-26T13:38:39;101674.85;;;2.53;95.94
19789;BME280;10054;59.332;18.244;2023-01-26T13:40:48;101675.34;;;2.48;94.93
19789;BME280;10054;59.332;18.244;2023-01-26T13:43:34;101676.25;;;2.45;95.33
19789;BME280;10054;59.332;18.244;2023-01-26T13:46:23;101679.33;;;2.42;95.96
19789;BME280;10054;59.332;18.244;2023-01-26T13:48:53;101685.05;;;2.35;93.59
19789;BME280;10054;59.332;18.244;2023-01-26T13:51:27;101688.58;;;2.29;94.11
19789;BME280;10054;59.332;18.244;2023-01-26T13:53:59;101689.92;;;2.26;93.59
19789;BME280;10054;59.332;18.244;2023-01-26T13:56:30;101693.91;;;2.22;93.89
19789;BME280;10054;59.332;18.244;2023-01-26T13:59:11;101698.31;;;2.15;93.35
19789;BME280;10054;59.332;18.244;2023-01-26T14:01:48;101695.31;;;2.13;94.71
19789;BME280;10054;59.332;18.244;2023-01-26T14:04:31;101703.13;;;2.11;96.24
19789;BME280;10054;59.332;18.244;2023-01-26T14:07:08;101701.42;;;2.09;95.63
19789;BME280;10054;59.332;18.244;2023-01-26T14:09:29;101709.30;;;2.01;95.85
19789;BME280;10054;59.332;18.244;2023-01-26T14:12:02;101717.13;;;2.00;96.84
19789;BME280;10054;59.332;18.244;2023-01-26T14:14:33;101727.11;;;1.98;97.50
19789;BME280;10054;59.332;18.244;2023-01-26T14:19:56;101731.92;;;1.94;98.52
19789;BME280;10054;59.332;18.244;2023-01-26T14:22:26;101727.19;;;1.91;99.34
19789;BME280;10054;59.332;18.244;2023-01-26T14:24:55;101729.83;;;1.86;98.21
19789;BME280;10054;59.332;18.244;2023-01-26T14:27:35;101734.63;;;1.84;99.00
19789;BME280;10054;59.332;18.244;2023-01-26T14:30:27;101745.49;;;1.80;100.00
19789;BME280;10054;59.332;18.244;2023-01-26T14:33:19;101755.06;;;1.77;100.00
19789;BME280;10054;59.332;18.244;2023-01-26T14:35:28;101760.72;;;1.73;100.00
19789;BME280;10054;59.332;18.244;2023-01-26T14:38:14;101756.88;;;1.67;100.00
19789;BME280;10054;59.332;18.244;2023-01-26T14:40:51;101755.60;;;1.62;100.00